EPSC/SZZ METAR and TAF weather

Enter ICAO airport designator
Station Type Date Time Source
EPSC METAR 2022/01/23 12:00 UTC NOAA

EPSC 231200Z 30003KT 9999 FEW007 OVC009 03/03 Q1031


Station Type Date Time Source
EPSC Decoded METAR 2022/01/23 12:00 UTC NOAA

Szczecin, Poland (EPSC) 53-24N 014-37E 3M
Jan 23, 2022 - 07:00 AM EST / 2022.01.23 1200 UTC
Wind: from the WNW (300 degrees) at 3 MPH (3 KT):0
Visibility: greater than 7 mile(s):0
Sky conditions: overcast
Temperature: 37 F (3 C)
Dew Point: 37 F (3 C)
Relative Humidity: 100%
Pressure (altimeter): 30.45 in. Hg (1031 hPa)
ob: EPSC 231200Z 30003KT 9999 FEW007 OVC009 03/03 Q1031
cycle: 12

Station Type Date Time Source
EPSC TAF 2022/01/23 12:33 UTC NOAA

TAF EPSC 231130Z 2312/2412 28004KT 4000 BR BKN002 BKN006
TEMPO 2312/2318 6000 BKN011 PROB30
TEMPO 2312/2313 2000 DZ BR BKN001
TEMPO 2318/2406 1500 BR
BECMG 2406/2409 7000 BKN013

Example: see airport list